Espace membre
Imprimable
Challenges > Delhalle - Bousval, 06/03/2016, BEL - Le Cross de Bousval
Liste des rapports > Delhalle - 15km - Classement
Recherche: Page: [1]
45 Entrées
 
Les réclamations ne sont plus acceptées, les résultats sont considérés comme définitifs.
RangNrNomAgeIOCLigueEquipeRéelTempsTkmMoy.ScrPtsLocalité
1.5FVANDROOGENBROECK VIRGINIE45BELCABWTRAINING 758:4358:433:55 15.3323959BRAINE L'ALLEUD
2.428FDUTRANNOIT VERONIQUE45BELSPIBO1:05:051:05:074:21 13.8269825HAVRE
3.209FDE GREVE GEERTRUI41BELETCHIEVR1:06:321:06:364:27 13.5199784EREMBODEGEM
4.97FLEROY FABIENNE42BELWACO1:07:291:07:304:30 13.34110762BERLOZ
5.859FKHARROUBI AWATEF44BELJCCS1:09:051:09:104:37 13.01126728GEDINNE
6.3614FVAN BUTSELE CHRISTINE40BELRIWA1:10:211:10:374:43 12.74150695
7.293FCARTIAUX MURIEL47BELRCB1:13:221:13:324:55 12.24190627EVERE
8.3493FLEONARD ANNE48BEL1:16:021:16:115:05 11.82226568
9.664FDROMELET BERENGERE48BELSPTWAVRE1:17:551:18:075:13 11.52256525WAVRE
10.441FKOOB MARIE-CECILE46BELVERTIGO1:17:341:18:115:13 11.51258528JURBISE
11.3724FABOU-HACEM NADIA41BELRCB1:18:061:18:125:13 11.51261519BRUXELLES
12.733FCRYNS VALERIE49BELUSBWMYSTERE1:18:551:19:105:17 11.37281496BRAINE L'ALLEUD
13.191FVANDERAST CAROLINE40BELUSBWMYSTERE1:18:571:19:115:17 11.37282495BRAINE-L'ALLEUD
14.3433FBAUER SIBYLLE44BELKURISTOKURISTO1:19:211:19:465:20 11.28290485
15.336FCOURTOIS VALERIE49BELJCCS1:20:141:20:305:22 11.18302466GEDINNE
16.3302FCOULONAUX SOPHIE40BELJCPMF GENAPPE1:19:431:20:345:23 11.17305471
17.3595FLECUIVRE CORINNE41BELKURISTO1:20:351:21:025:25 11.11310457
18.3709FWAUTHIER SANDRA43BELJOGGANS1:22:481:23:015:33 10.84335414SINT PIETERS LEEUW
19.3462FTROUPIN CECILE42BELGERPINNES AND CO1:22:501:23:375:35 10.76345407
20.468FDEMIN LIEVE49BELMYSTERE1:23:171:23:555:36 10.73350399BRUXELLES
21.3200FHERMANS REGINE44BEL1:23:581:24:375:39 10.64357386
22.3699FARNOULD SYLVIE40BELRCNAMUR1:25:381:26:075:45 10.45377354EVREHAILLES
23.3626FFIAS LORE43BELHAMURASI1:27:151:27:475:52 10.25393325
24.3209FMANDEVILLE KIANA41BEL1:27:531:28:075:53 10.21399313
25.3703FTOPART SYLVIE41BEL1:27:481:28:105:53 10.21400314SOMBREFFE
26.3454FDANCOT SOPHIE44BEL1:28:411:29:115:57 10.09418292
27.176FVERPLAETSE JOHANNA45BELCSFMYSTERE1:29:381:30:156:01 9.97435271FOREST
28.929FCHRISTOPHE NA YOUNG43BELCSFMYSTERE1:29:381:30:166:02 9.97436271BRUXELLES
29.2250FGILBERT STEPHANIE41BELJOGGING PLUS1:32:071:33:036:13 9.67466224
30.3727FSAUBAIN STEPHANIE42BELBOUFFIOLS1:32:221:33:106:13 9.66467220FONTAINE L'EVEQUE
31.362FSAUVEGARDE ANNE-PASCALE48BELSPTWAVRE1:33:451:34:266:18 9.53477199COURT-SAINT-ETIENNE
32.549FVINCENT LOUISE-MARIE45BELSPTWAVRE1:33:421:34:266:18 9.53478199LIMAL
33.881FHOURMAN GWENDOLINE49BELENJAMBEE1:34:341:35:126:21 9.45484186TERVUREN
34.3368FDEWAELE CHRISTEL44BEL1:35:321:36:056:25 9.37493170
35.3705FHUBAILLE CATHERINE43BEL1:35:511:36:066:25 9.37494166OTTIGNIES
36.3300FPILOTTO SANDRA49BELJCPMF1:37:351:37:536:32 9.20502142
37.7FHENNERESSE ISABELLE46BELJOGGANS1:38:041:38:556:36 9.10507134GEDINNE
38.3725FMALIKIAN MARIE48BELMYSTERE1:38:541:39:416:39 9.03512122BRUXELLES
39.3667FMALAGODI CHIARA43ITARED SOX BRUSSELS1:39:451:40:106:41 8.99514112BRUXELLES
40.772FVAN GANSEN CHRISTEL44BEL1:40:061:40:266:42 8.96516107BASECLES
41.3471FLAUREYS CHARLOTTE43BELJCPMF GENAPPE1:41:241:41:406:47 8.8552291
42.684FDESTRES LINDA42BELARCH1:44:021:45:017:01 8.5753357MIECRET
43.3687FVANDERBECKEN NATHALIE40BEL1:44:181:45:067:01 8.5653454PETIT-ENGHIEN
44.222FPEREIRA OLINDA44BELIRUN@WATERLOO2:01:432:02:378:11 7.345493BRAINE-L'ALLEUD
DNF3250FTRETESEAUX SOPHIE41BEL
DNF: abandon; DSQ: disqualifié; Vitesse en km/h
Page: [1]